Time;durP1;ratioP1;P1;durP2;ratioP2;P2;SDS_P1;SDS_P2;PMS_P1;PMS_P2;Temp;Humidity;BMP_temperature;BMP_pressure;BME280_temperature;BME280_humidity;BME280_pressure;Samples;Min_cycle;Max_cycle;Signal;HPM_P1;HPM_P2
2021/12/11 00:02:09;;;;;;;;;20.00;20.00;;;;;9.29;89.46;101677.63;5016290;28;11316;-72
2021/12/11 00:04:42;;;;;;;;;21.25;20.75;;;;;9.49;88.69;101684.78;4999074;28;11576;-72
2021/12/11 00:07:27;;;;;;;;;16.00;16.00;;;;;9.29;89.77;101682.34;5015790;28;11378;-72
2021/12/11 00:10:40;;;;;;;;;24.75;24.75;;;;;9.35;89.51;101681.94;5015724;28;11216;-71
2021/12/11 00:13:17;;;;;;;;;20.75;20.75;;;;;9.32;89.03;101682.53;5016105;28;11511;-71
2021/12/11 00:15:47;;;;;;;;;21.75;21.75;;;;;9.42;88.50;101687.91;5015169;28;11654;-71
2021/12/11 00:18:48;;;;;;;;;20.75;20.75;;;;;9.51;88.28;101678.94;5011400;28;11493;-72
2021/12/11 00:21:44;;;;;;;;;17.75;17.75;;;;;9.45;88.66;101679.03;5014511;28;11475;-72
2021/12/11 00:24:41;;;;;;;;;20.50;20.50;;;;;9.37;88.89;101682.47;5014667;28;11581;-72
2021/12/11 00:27:12;;;;;;;;;16.50;16.50;;;;;9.46;88.49;101682.63;5015601;28;11443;-72
2021/12/11 00:29:41;;;;;;;;;19.75;18.75;;;;;9.62;87.16;101686.78;4998337;28;11465;-72
2021/12/11 00:32:38;;;;;;;;;18.00;18.00;;;;;9.41;87.37;101679.94;5015293;28;11489;-72
2021/12/11 00:35:28;;;;;;;;;16.50;16.50;;;;;9.32;88.14;101673.44;5015796;28;11423;-71
2021/12/11 00:38:04;;;;;;;;;21.00;17.75;;;;;9.31;87.66;101667.09;4994833;28;11513;-72
2021/12/11 00:41:05;;;;;;;;;20.25;20.25;;;;;9.28;87.88;101683.41;4981791;28;11563;-71
2021/12/11 00:44:01;;;;;;;;;22.75;19.75;;;;;9.42;87.10;101673.28;4994693;28;11624;-72
2021/12/11 00:46:31;;;;;;;;;21.50;21.50;;;;;9.31;87.58;101675.38;5005313;28;12072;-72
2021/12/11 00:49:28;;;;;;;;;18.00;18.00;;;;;9.23;87.99;101661.44;5014228;28;11441;-72
2021/12/11 00:52:09;;;;;;;;;21.00;21.00;;;;;9.26;88.03;101660.81;4997333;28;12041;-71
2021/12/11 00:54:43;;;;;;;;;20.25;20.25;;;;;9.34;87.78;101662.91;5015556;28;11471;-72
2021/12/11 00:57:25;;;;;;;;;21.00;21.00;;;;;9.26;87.72;101655.31;5014876;28;11447;-71
2021/12/11 01:00:03;;;;;;;;;17.00;17.00;;;;;9.27;87.76;101659.69;5015386;28;11421;-72
2021/12/11 01:02:31;;;;;;;;;21.75;21.75;;;;;9.26;87.55;101660.81;5015060;28;11485;-72
2021/12/11 01:05:34;;;;;;;;;23.00;22.50;;;;;9.26;88.25;101669.09;5013471;28;12150;-72
2021/12/11 01:08:22;;;;;;;;;27.00;24.25;;;;;9.10;88.96;101658.28;5015017;28;11516;-71
2021/12/11 01:10:58;;;;;;;;;19.75;19.75;;;;;8.98;89.25;101666.19;5014903;28;11521;-72
2021/12/11 01:13:34;;;;;;;;;21.50;21.50;;;;;9.08;88.99;101655.00;5015097;28;11472;-72
2021/12/11 01:16:30;;;;;;;;;27.25;26.00;;;;;9.21;88.59;101649.88;5013431;28;11475;-72
2021/12/11 01:19:17;;;;;;;;;26.25;26.25;;;;;8.99;89.22;101645.75;5014386;28;12388;-71
2021/12/11 01:21:59;;;;;;;;;26.75;26.00;;;;;9.09;89.15;101648.38;5014672;28;12215;-72
2021/12/11 01:24:43;;;;;;;;;23.50;22.75;;;;;9.14;88.84;101651.06;5014567;28;11491;-72
2021/12/11 01:27:35;;;;;;;;;23.75;22.50;;;;;9.04;88.67;101640.16;4994810;28;12286;-71
2021/12/11 01:30:38;;;;;;;;;23.75;23.75;;;;;8.98;89.55;101644.13;4993633;28;11536;-72
2021/12/11 01:33:35;;;;;;;;;31.50;30.50;;;;;8.89;90.24;101649.47;4993116;28;11531;-71
2021/12/11 01:36:17;;;;;;;;;31.00;27.50;;;;;8.94;89.35;101637.53;5005167;28;11540;-72
2021/12/11 01:38:47;;;;;;;;;30.50;30.50;;;;;9.03;89.08;101640.44;4997327;28;11498;-72
2021/12/11 01:41:44;;;;;;;;;28.50;28.50;;;;;8.97;89.25;101630.59;5013087;28;11522;-71
2021/12/11 01:44:21;;;;;;;;;23.25;23.25;;;;;8.91;89.25;101650.00;5014323;28;11527;-71
2021/12/11 01:46:49;;;;;;;;;30.50;28.25;;;;;8.99;88.52;101645.75;5014188;28;11477;-72
2021/12/11 01:49:21;;;;;;;;;27.00;25.75;;;;;8.91;88.84;101643.66;5014171;28;11518;-72
2021/12/11 01:52:33;;;;;;;;;23.75;23.75;;;;;8.93;88.76;101652.47;5013106;28;11569;-72
2021/12/11 01:55:08;;;;;;;;;23.25;22.50;;;;;8.85;88.58;101645.66;5013498;28;11528;-71
2021/12/11 01:58:07;;;;;;;;;24.75;24.75;;;;;8.85;88.37;101637.38;5012773;28;11455;-72
2021/12/11 02:00:58;;;;;;;;;24.50;23.00;;;;;8.76;88.48;101639.16;4999250;28;11446;-71
2021/12/11 02:03:55;;;;;;;;;24.00;24.00;;;;;8.73;88.43;101636.97;4995053;28;12139;-71
2021/12/11 02:06:53;;;;;;;;;19.00;19.00;;;;;8.90;88.05;101637.31;4986868;28;11521;-72
2021/12/11 02:09:29;;;;;;;;;27.75;27.50;;;;;8.83;88.18;101630.53;4981921;28;11539;-72
2021/12/11 02:12:10;;;;;;;;;29.00;26.50;;;;;8.85;88.22;101633.81;4986069;28;11491;-72
2021/12/11 02:14:45;;;;;;;;;25.25;25.25;;;;;8.71;88.76;101638.41;4994321;28;11509;-72
2021/12/11 02:17:40;;;;;;;;;24.25;22.25;;;;;8.63;88.58;101642.63;4993626;28;11539;-73
2021/12/11 02:20:12;;;;;;;;;29.25;29.25;;;;;8.60;88.80;101646.81;4976860;28;11550;-71
2021/12/11 02:23:09;;;;;;;;;25.25;25.25;;;;;8.70;88.09;101651.38;4980200;28;11500;-71
2021/12/11 02:25:54;;;;;;;;;13.75;13.75;;;;;8.57;88.30;101650.13;4993421;28;11539;-71
2021/12/11 02:29:10;;;;;;;;;32.75;27.25;;;;;8.61;88.68;101655.91;4993128;28;11481;-71
2021/12/11 02:32:15;;;;;;;;;27.00;27.00;;;;;8.69;87.50;101662.72;5005211;28;11542;-71
2021/12/11 02:35:46;;;;;;;;;25.00;23.50;;;;;8.52;88.02;101661.25;4992762;28;11700;-70
2021/12/11 02:38:37;;;;;;;;;22.25;22.25;;;;;8.38;87.95;101654.78;4947566;28;12351;-70
2021/12/11 02:41:21;;;;;;;;;23.75;22.00;;;;;8.38;88.72;101651.22;4974438;28;11520;-71
2021/12/11 02:44:24;;;;;;;;;23.75;23.00;;;;;8.27;88.64;101648.50;4973662;28;11585;-70
2021/12/11 02:47:08;;;;;;;;;24.75;24.75;;;;;8.30;88.79;101658.97;4986334;28;11541;-71
2021/12/11 02:50:20;;;;;;;;;20.75;20.75;;;;;8.26;88.84;101660.66;4979317;28;12266;-70
2021/12/11 02:53:17;;;;;;;;;22.75;21.50;;;;;8.15;89.62;101653.63;4991911;28;11610;-70
2021/12/11 02:55:57;;;;;;;;;23.75;22.00;;;;;7.95;89.71;101649.13;4993496;28;12293;-71
2021/12/11 02:58:58;;;;;;;;;16.00;16.00;;;;;8.02;89.45;101638.59;4993416;28;12279;-71
2021/12/11 03:01:48;;;;;;;;;21.25;21.25;;;;;8.07;89.45;101646.00;4994469;28;11525;-71
2021/12/11 03:04:35;;;;;;;;;23.50;23.50;;;;;7.98;89.81;101640.28;5012568;28;11518;-71
2021/12/11 03:07:07;;;;;;;;;24.00;24.00;;;;;8.06;89.04;101636.09;5005776;28;11501;-71
2021/12/11 03:09:47;;;;;;;;;17.50;17.50;;;;;8.04;89.10;101639.09;5011874;28;11502;-71
2021/12/11 03:12:18;;;;;;;;;21.50;21.50;;;;;7.90;89.75;101646.44;5013079;28;11589;-71
2021/12/11 03:15:16;;;;;;;;;24.25;24.25;;;;;7.84;89.63;101635.75;5011989;28;11575;-71
2021/12/11 03:17:57;;;;;;;;;20.00;20.00;;;;;7.82;89.89;101641.56;4998449;28;11511;-69
2021/12/11 03:20:54;;;;;;;;;21.00;21.00;;;;;8.01;88.98;101647.97;4997356;28;11687;-70
2021/12/11 03:23:50;;;;;;;;;23.00;20.00;;;;;7.84;88.59;101631.06;4997713;28;11571;-70
2021/12/11 03:26:19;;;;;;;;;19.75;19.75;;;;;7.92;88.77;101640.63;5012011;28;12208;-71
2021/12/11 03:29:15;;;;;;;;;11.00;11.00;;;;;7.96;87.86;101638.91;5012500;28;11502;-72
2021/12/11 03:32:13;;;;;;;;;16.25;16.25;;;;;7.62;89.79;101638.97;5010931;28;11487;-70
2021/12/11 03:35:10;;;;;;;;;18.25;16.75;;;;;7.61;89.51;101638.13;5002909;28;11613;-71
2021/12/11 03:38:07;;;;;;;;;13.50;13.50;;;;;7.57;89.61;101628.81;5009904;28;11603;-70
2021/12/11 03:40:49;;;;;;;;;16.50;16.25;;;;;7.57;89.28;101639.81;5011192;28;12339;-71
2021/12/11 03:43:25;;;;;;;;;15.25;15.25;;;;;7.53;89.22;101636.00;4996245;28;11524;-70
2021/12/11 03:46:09;;;;;;;;;16.50;16.50;;;;;7.47;89.34;101640.72;4997312;28;11457;-71
2021/12/11 03:49:09;;;;;;;;;13.50;13.50;;;;;7.48;88.88;101641.53;5011943;28;11456;-71
2021/12/11 03:52:09;;;;;;;;;18.75;18.75;;;;;7.65;88.34;101649.38;5011839;28;11459;-71
2021/12/11 03:55:08;;;;;;;;;19.00;19.00;;;;;7.65;88.75;101636.44;5011588;28;11435;-72
2021/12/11 03:57:37;;;;;;;;;15.00;15.00;;;;;7.61;88.59;101642.84;5015801;28;11566;-71
2021/12/11 04:00:52;;;;;;;;;14.50;14.25;;;;;7.71;87.53;101631.72;5015684;28;11514;-71
2021/12/11 04:03:49;;;;;;;;;15.00;14.75;;;;;7.50;88.14;101650.31;5015980;28;11493;-72
2021/12/11 04:06:46;;;;;;;;;7.00;7.00;;;;;7.43;87.49;101642.38;5014781;28;11476;-70
2021/12/11 04:09:19;;;;;;;;;14.25;14.25;;;;;7.50;86.73;101644.81;5015759;28;11425;-69
2021/12/11 04:12:09;;;;;;;;;16.00;16.00;;;;;7.45;87.38;101631.94;5016371;28;11468;-70
2021/12/11 04:14:41;;;;;;;;;14.50;14.50;;;;;7.29;88.46;101635.09;4997956;28;11507;-70
2021/12/11 04:17:18;;;;;;;;;18.75;18.75;;;;;7.46;88.03;101641.84;5015572;28;11500;-70
2021/12/11 04:20:17;;;;;;;;;16.25;14.75;;;;;7.29;88.85;101646.09;5014082;28;11492;-70
2021/12/11 04:23:14;;;;;;;;;12.00;12.00;;;;;6.99;89.99;101639.66;5000781;28;11478;-70
2021/12/11 04:26:03;;;;;;;;;16.75;16.75;;;;;7.23;89.38;101621.34;5012540;28;11547;-70
2021/12/11 04:28:34;;;;;;;;;13.00;13.00;;;;;7.22;89.19;101624.41;5014114;28;11558;-71
2021/12/11 04:31:10;;;;;;;;;19.25;18.75;;;;;7.07;88.87;101624.50;5014080;28;11561;-71
2021/12/11 04:33:44;;;;;;;;;17.00;15.00;;;;;7.25;87.28;101621.88;5013866;28;11537;-70
2021/12/11 04:36:45;;;;;;;;;15.50;15.50;;;;;7.19;87.66;101628.53;4995398;28;11524;-71
2021/12/11 04:39:17;;;;;;;;;14.00;14.00;;;;;7.17;87.34;101622.50;5011302;28;11492;-71
2021/12/11 04:42:07;;;;;;;;;14.25;14.25;;;;;6.91;88.56;101619.09;5012077;28;11485;-71
2021/12/11 04:45:08;;;;;;;;;18.25;18.25;;;;;7.06;87.83;101631.94;5013105;28;11622;-70
2021/12/11 04:47:53;;;;;;;;;12.00;12.00;;;;;6.72;88.42;101623.56;5013159;28;11575;-70
2021/12/11 04:51:28;;;;;;;;;16.00;16.00;;;;;6.80;87.59;101619.41;5012700;28;11501;-70
2021/12/11 04:57:10;;;;;;;;;15.25;15.25;;;;;6.87;87.42;101611.69;5012519;28;12266;-70
2021/12/11 05:11:53;;;;;;;;;11.50;11.25;;;;;6.56;87.22;101627.50;5012532;28;11554;-70
2021/12/11 05:14:36;;;;;;;;;11.00;11.00;;;;;6.51;88.11;101630.25;5011140;28;11548;-70
2021/12/11 05:17:31;;;;;;;;;12.50;12.50;;;;;6.57;87.06;101620.91;5012621;28;11583;-70
2021/12/11 05:20:10;;;;;;;;;14.00;14.00;;;;;6.66;86.63;101636.50;5013296;28;11579;-72
2021/12/11 05:23:06;;;;;;;;;17.00;15.75;;;;;6.66;86.55;101633.75;5011594;28;11491;-71
2021/12/11 05:26:03;;;;;;;;;14.00;14.00;;;;;6.66;86.19;101628.25;5010266;28;11545;-70
2021/12/11 05:28:45;;;;;;;;;11.75;10.25;;;;;6.35;87.23;101635.81;4990738;28;12368;-70
2021/12/11 05:32:00;;;;;;;;;12.75;12.75;;;;;6.57;85.64;101648.38;4999200;28;11543;-70
2021/12/11 05:34:39;;;;;;;;;16.25;16.25;;;;;6.55;86.01;101654.16;5011801;28;11615;-71
2021/12/11 05:37:36;;;;;;;;;12.75;12.75;;;;;6.30;86.83;101638.59;4997320;28;11659;-70
2021/12/11 05:40:18;;;;;;;;;10.50;10.50;;;;;6.31;86.57;101653.97;4994456;28;12438;-70
2021/12/11 05:42:47;;;;;;;;;13.00;13.00;;;;;6.48;86.11;101639.06;5010299;28;11514;-71
2021/12/11 05:45:24;;;;;;;;;12.75;12.75;;;;;6.27;86.59;101644.63;5014420;28;11649;-70
2021/12/11 05:47:53;;;;;;;;;12.75;10.75;;;;;6.56;85.71;101668.72;5012806;28;11659;-70
2021/12/11 05:50:25;;;;;;;;;14.00;14.00;;;;;6.58;85.47;101691.25;5013574;28;11545;-71
2021/12/11 05:53:08;;;;;;;;;17.50;17.00;;;;;6.68;84.90;101708.56;5013570;28;11607;-70
2021/12/11 05:56:11;;;;;;;;;14.50;13.75;;;;;6.74;84.53;101736.00;4999561;28;11709;-71
2021/12/11 05:59:09;;;;;;;;;12.75;12.75;;;;;6.77;83.59;101733.53;5000116;28;11521;-70
2021/12/11 06:02:14;;;;;;;;;19.00;19.00;;;;;6.77;83.92;101744.53;4998669;28;11482;-71
2021/12/11 06:04:59;;;;;;;;;16.50;16.50;;;;;6.90;83.51;101738.44;5012961;28;11505;-71
2021/12/11 06:07:30;;;;;;;;;21.75;16.50;;;;;6.92;83.23;101732.66;5013273;28;11655;-71
2021/12/11 06:10:07;;;;;;;;;19.50;17.75;;;;;6.96;83.23;101744.72;5007912;28;11649;-71
2021/12/11 06:13:04;;;;;;;;;17.25;17.25;;;;;6.94;83.09;101739.53;5011303;28;11549;-71
2021/12/11 06:15:48;;;;;;;;;13.00;13.00;;;;;6.83;83.43;101735.19;5012926;28;11604;-71
2021/12/11 06:18:45;;;;;;;;;12.50;12.50;;;;;6.87;82.76;101739.00;5003203;28;11493;-71
2021/12/11 06:21:43;;;;;;;;;12.50;12.50;;;;;6.89;82.71;101752.47;5011482;28;11541;-71
2021/12/11 06:24:11;;;;;;;;;26.25;26.25;;;;;6.86;83.03;101756.59;5012455;28;11495;-70
2021/12/11 06:26:55;;;;;;;;;18.50;18.00;;;;;7.00;83.13;101748.59;5011786;28;11599;-71
2021/12/11 06:29:51;;;;;;;;;23.25;19.25;;;;;6.95;82.94;101743.09;4999274;28;12360;-71
2021/12/11 06:32:21;;;;;;;;;20.75;20.75;;;;;7.26;82.00;101757.53;5013245;28;11561;-70
2021/12/11 06:35:27;;;;;;;;;24.75;23.00;;;;;7.31;82.15;101762.22;5012063;28;11567;-73
2021/12/11 06:37:55;;;;;;;;;16.00;16.00;;;;;7.29;81.90;101762.50;5013005;28;11661;-73
2021/12/11 06:40:52;;;;;;;;;17.00;17.00;;;;;7.49;81.30;101776.13;5012343;28;11579;-73
2021/12/11 06:43:49;;;;;;;;;14.50;14.00;;;;;7.33;81.84;101762.75;5011773;28;11493;-72
2021/12/11 06:46:17;;;;;;;;;19.25;17.25;;;;;7.42;80.86;101763.78;5011242;28;12273;-73
2021/12/11 06:49:13;;;;;;;;;21.50;19.25;;;;;7.48;80.46;101771.75;5009557;28;12312;-72
2021/12/11 06:51:41;;;;;;;;;22.50;22.50;;;;;7.56;80.45;101761.22;5009245;28;11463;-73
2021/12/11 06:54:10;;;;;;;;;12.75;11.00;;;;;7.72;79.80;101760.84;4995760;28;11520;-74
2021/12/11 06:57:09;;;;;;;;;24.00;23.00;;;;;8.03;79.08;101764.19;5011944;28;11535;-73
2021/12/11 07:00:06;;;;;;;;;25.50;25.50;;;;;8.09;78.81;101753.97;5012896;28;11486;-73
2021/12/11 07:03:02;;;;;;;;;15.25;15.25;;;;;8.03;77.80;101777.97;5012233;28;11517;-73
2021/12/11 07:05:58;;;;;;;;;15.25;15.25;;;;;7.95;78.73;101773.09;5011103;28;11485;-74
2021/12/11 07:08:29;;;;;;;;;21.00;21.00;;;;;7.99;77.95;101776.91;4995357;28;11461;-75
2021/12/11 07:11:00;;;;;;;;;17.75;17.75;;;;;7.71;78.59;101783.16;4995774;28;11454;-74
2021/12/11 07:13:43;;;;;;;;;21.00;21.00;;;;;7.89;78.76;101776.16;4994921;28;11603;-74
2021/12/11 07:16:39;;;;;;;;;20.25;19.75;;;;;7.72;78.84;101776.56;4998808;28;11449;-73
2021/12/11 07:19:20;;;;;;;;;15.50;15.50;;;;;7.76;78.52;101783.97;4994175;28;11518;-73
2021/12/11 07:21:50;;;;;;;;;9.75;9.75;;;;;7.88;78.87;101774.50;5010491;28;11441;-73
2021/12/11 07:24:58;;;;;;;;;27.75;27.00;;;;;7.83;78.87;101771.81;5011927;28;11453;-74
2021/12/11 07:27:56;;;;;;;;;19.50;19.50;;;;;7.73;79.27;101775.44;4997551;28;11566;-75
2021/12/11 07:30:25;;;;;;;;;16.75;16.75;;;;;7.91;78.71;101774.78;4995422;28;11518;-74
2021/12/11 07:33:21;;;;;;;;;16.75;16.75;;;;;7.76;79.69;101767.44;5006665;28;11569;-74
2021/12/11 07:35:51;;;;;;;;;20.50;19.25;;;;;7.73;79.84;101783.69;5005576;28;11473;-74
2021/12/11 07:38:46;;;;;;;;;15.75;15.50;;;;;7.86;79.34;101776.75;5000586;28;12249;-74
2021/12/11 07:41:16;;;;;;;;;21.25;21.25;;;;;7.85;79.45;101784.19;5015760;28;11500;-74
2021/12/11 07:44:12;;;;;;;;;21.50;18.75;;;;;7.78;79.09;101759.72;5000991;28;11441;-74
2021/12/11 07:47:08;;;;;;;;;18.50;18.50;;;;;7.78;78.88;101758.88;5012417;28;11497;-73
2021/12/11 07:50:04;;;;;;;;;19.00;17.75;;;;;8.09;78.02;101770.50;5001966;28;11581;-74
2021/12/11 07:52:55;;;;;;;;;22.25;21.25;;;;;8.08;77.74;101777.94;5001269;28;11500;-74
2021/12/11 07:55:24;;;;;;;;;25.00;25.00;;;;;8.25;77.82;101788.56;5015902;28;11498;-73
2021/12/11 07:57:52;;;;;;;;;15.00;14.25;;;;;8.29;77.80;101783.31;5015640;28;11511;-74
2021/12/11 08:00:49;;;;;;;;;23.50;23.50;;;;;8.14;77.71;101761.38;4995642;28;11624;-73
2021/12/11 08:03:45;;;;;;;;;15.75;15.75;;;;;8.25;77.76;101768.44;4995951;28;11510;-73
2021/12/11 08:06:29;;;;;;;;;19.50;19.50;;;;;8.15;77.52;101768.53;5001223;28;12365;-73
2021/12/11 08:09:24;;;;;;;;;20.75;20.00;;;;;8.40;77.11;101760.06;5012375;28;11477;-74
2021/12/11 08:12:20;;;;;;;;;14.50;14.50;;;;;8.22;77.08;101761.59;5002159;28;11451;-73
2021/12/11 08:14:50;;;;;;;;;15.25;15.25;;;;;8.34;77.13;101767.50;5015693;28;11427;-73
2021/12/11 08:17:52;;;;;;;;;15.75;15.75;;;;;8.35;77.51;101782.16;5012064;28;11503;-73
2021/12/11 08:20:48;;;;;;;;;16.75;16.75;;;;;8.73;76.43;101771.31;4995377;28;11499;-74
2021/12/11 08:23:46;;;;;;;;;20.25;20.25;;;;;8.84;76.00;101765.41;4998358;28;11501;-74
2021/12/11 08:26:29;;;;;;;;;22.75;22.75;;;;;8.98;75.66;101762.78;5013952;28;11490;-74
2021/12/11 08:29:14;;;;;;;;;21.00;20.75;;;;;9.01;75.36;101737.34;5015212;28;11488;-73
2021/12/11 08:32:11;;;;;;;;;16.25;16.25;;;;;9.04;74.96;101731.22;5014860;28;11510;-74
2021/12/11 08:35:12;;;;;;;;;15.25;15.25;;;;;9.65;73.90;101710.22;5003313;28;11459;-73
2021/12/11 08:38:09;;;;;;;;;15.75;15.75;;;;;9.39;73.05;101723.59;5012225;28;11513;-73
2021/12/11 08:41:07;;;;;;;;;16.25;16.25;;;;;9.45;73.02;101741.72;5006819;28;11282;-73
2021/12/11 08:44:10;;;;;;;;;21.50;21.50;;;;;9.42;73.22;101739.53;4994246;28;11220;-74
2021/12/11 08:47:10;;;;;;;;;14.75;13.50;;;;;9.68;72.13;101740.84;4988056;28;11494;-74
2021/12/11 08:50:11;;;;;;;;;20.25;20.25;;;;;9.83;72.67;101739.78;5008165;28;11207;-73
2021/12/11 08:53:07;;;;;;;;;22.50;22.00;;;;;9.62;72.13;101747.56;5001778;28;11448;-74
2021/12/11 08:56:06;;;;;;;;;28.25;26.25;;;;;9.78;72.00;101755.59;5014490;28;11598;-74
2021/12/11 08:59:05;;;;;;;;;20.00;20.00;;;;;9.66;71.70;101759.66;5024329;28;11521;-74
2021/12/11 09:02:03;;;;;;;;;21.50;21.50;;;;;9.66;71.87;101754.13;5013903;28;11269;-74
2021/12/11 09:05:07;;;;;;;;;21.50;21.50;;;;;9.50;72.50;101765.69;5007907;28;11491;-74
2021/12/11 09:08:14;;;;;;;;;30.50;30.50;;;;;9.55;72.17;101773.91;5008586;28;11586;-74
2021/12/11 09:11:23;;;;;;;;;20.50;19.75;;;;;9.44;72.94;101778.75;5013792;28;11507;-74
2021/12/11 09:13:59;;;;;;;;;24.75;22.75;;;;;9.85;83.93;101762.41;5013330;28;11463;-74
2021/12/11 09:16:53;;;;;;;;;23.00;23.00;;;;;10.82;90.97;101767.09;5014771;28;11280;-74
2021/12/11 09:19:55;;;;;;;;;27.25;27.25;;;;;11.14;87.66;101768.13;5014004;28;11277;-74
2021/12/11 09:22:57;;;;;;;;;22.75;22.75;;;;;11.03;83.80;101763.91;5014267;28;11122;-75
2021/12/11 09:26:00;;;;;;;;;28.50;27.00;;;;;11.41;84.84;101750.66;5013957;28;10913;-73
2021/12/11 09:29:14;;;;;;;;;19.75;19.50;;;;;10.82;77.31;101775.41;5013976;28;11155;-74
2021/12/11 09:32:27;;;;;;;;;21.00;21.00;;;;;11.20;84.72;101775.22;4997570;28;10898;-74
2021/12/11 09:35:10;;;;;;;;;24.50;24.50;;;;;10.76;77.07;101775.81;4982403;28;10684;-74
2021/12/11 09:37:43;;;;;;;;;24.00;23.75;;;;;10.76;74.73;101776.63;5014685;28;10706;-74
2021/12/11 09:40:21;;;;;;;;;27.00;26.50;;;;;10.57;73.20;101784.97;4998081;28;10582;-73
2021/12/11 09:42:48;;;;;;;;;24.50;24.50;;;;;10.42;78.58;101773.38;5014862;28;10895;-74
2021/12/11 09:45:24;;;;;;;;;36.00;35.50;;;;;10.61;77.33;101774.16;5015408;28;11411;-75
2021/12/11 09:48:01;;;;;;;;;24.50;24.50;;;;;11.53;88.33;101775.06;5014526;28;11243;-74
2021/12/11 09:50:56;;;;;;;;;19.25;19.25;;;;;11.06;78.83;101780.75;5014639;28;10818;-73
2021/12/11 09:53:28;;;;;;;;;35.75;35.25;;;;;11.44;82.66;101779.69;5014285;28;10398;-74
2021/12/11 09:55:57;;;;;;;;;23.00;23.00;;;;;12.16;85.26;101777.75;5014490;28;11094;-75
2021/12/11 09:58:32;;;;;;;;;26.75;26.75;;;;;11.88;78.84;101777.03;5014440;28;11402;-74
2021/12/11 10:01:07;;;;;;;;;23.75;23.75;;;;;12.07;79.05;101776.06;5014594;28;10679;-74
2021/12/11 10:03:41;;;;;;;;;22.50;22.25;;;;;12.01;80.51;101772.56;5014556;28;11202;-73
2021/12/11 10:06:15;;;;;;;;;23.50;21.50;;;;;12.06;78.86;101752.22;5014326;28;10243;-73
2021/12/11 10:08:46;;;;;;;;;21.50;21.50;;;;;11.70;75.26;101751.09;5014453;28;10199;-74
2021/12/11 10:11:32;;;;;;;;;34.25;32.75;;;;;12.00;82.26;101748.75;4997037;28;10403;-74
2021/12/11 10:14:12;;;;;;;;;33.00;33.00;;;;;12.10;80.29;101750.44;4997106;28;10499;-74
2021/12/11 10:16:46;;;;;;;;;24.25;24.25;;;;;12.11;74.31;101752.09;5014203;28;10516;-74
2021/12/11 10:19:17;;;;;;;;;40.25;36.00;;;;;11.81;71.35;101757.25;4996832;28;10453;-74
2021/12/11 10:21:53;;;;;;;;;57.75;43.00;;;;;11.89;76.33;101764.84;5014213;28;10722;-75
2021/12/11 10:24:24;;;;;;;;;34.00;32.50;;;;;11.42;71.68;101757.81;5014052;28;11207;-74
2021/12/11 10:26:56;;;;;;;;;19.50;19.25;;;;;11.88;78.34;101743.75;5012689;28;11142;-74
2021/12/11 10:29:24;;;;;;;;;34.50;34.50;;;;;11.59;71.07;101760.78;5013918;28;10407;-74
2021/12/11 10:31:58;;;;;;;;;32.50;31.50;;;;;11.56;70.68;101771.66;5012666;28;10866;-73
2021/12/11 10:34:30;;;;;;;;;27.50;20.50;;;;;11.28;73.08;101773.66;4996376;28;10791;-74
2021/12/11 10:37:03;;;;;;;;;21.75;21.75;;;;;10.82;75.27;101783.72;5013518;28;11208;-74
2021/12/11 10:39:31;;;;;;;;;48.25;41.25;;;;;11.35;77.73;101788.75;5013985;28;11361;-75
2021/12/11 10:42:00;;;;;;;;;22.50;22.50;;;;;11.53;77.44;101794.44;5013803;28;11451;-73
2021/12/11 10:44:32;;;;;;;;;45.00;40.25;;;;;11.28;72.84;101813.25;5013971;28;10836;-73
2021/12/11 10:47:09;;;;;;;;;24.00;24.00;;;;;11.01;72.66;101824.31;5013639;28;11282;-73
2021/12/11 10:49:38;;;;;;;;;19.25;19.25;;;;;11.62;79.24;101820.28;5013638;28;10649;-74
2021/12/11 10:52:11;;;;;;;;;21.75;20.75;;;;;12.06;79.87;101832.66;4996181;28;10647;-74
2021/12/11 10:54:40;;;;;;;;;24.25;23.00;;;;;11.65;74.24;101831.59;4996498;28;10317;-74
2021/12/11 10:57:10;;;;;;;;;30.50;29.00;;;;;11.36;75.76;101831.09;5013331;28;10733;-74
2021/12/11 10:59:42;;;;;;;;;32.75;31.50;;;;;11.79;79.65;101830.72;5013605;28;10874;-75
2021/12/11 11:02:18;;;;;;;;;38.75;36.50;;;;;11.35;74.14;101833.06;5013349;28;11148;-75
2021/12/11 11:04:54;;;;;;;;;65.00;53.75;;;;;11.25;73.31;101835.19;5013441;28;11189;-75
2021/12/11 11:07:23;;;;;;;;;64.00;52.50;;;;;11.46;78.05;101836.41;5009108;28;11496;-74
2021/12/11 11:09:54;;;;;;;;;111.00;94.25;;;;;11.26;72.53;101839.59;4995920;28;11559;-75
2021/12/11 11:12:24;;;;;;;;;48.50;38.50;;;;;11.32;75.00;101841.97;5012926;28;11566;-75
2021/12/11 11:14:55;;;;;;;;;56.00;45.75;;;;;11.00;74.19;101842.88;4996295;28;11204;-75
2021/12/11 11:17:31;;;;;;;;;36.00;34.75;;;;;11.05;75.00;101851.09;5013233;28;11556;-75
2021/12/11 11:20:00;;;;;;;;;27.00;26.00;;;;;11.08;76.65;101842.16;5013164;28;11279;-75
2021/12/11 11:22:31;;;;;;;;;51.25;42.50;;;;;10.81;70.50;101842.97;5013338;28;11948;-75
2021/12/11 11:25:39;;;;;;;;;43.50;34.75;;;;;10.96;75.33;101852.06;5013153;28;11479;-75
2021/12/11 11:28:12;;;;;;;;;30.25;28.50;;;;;10.52;73.67;101859.78;4952621;29;12313;-74
2021/12/11 11:30:45;;;;;;;;;43.00;39.75;;;;;10.45;73.59;101858.53;5005414;28;11138;-74
2021/12/11 11:33:15;;;;;;;;;64.25;50.75;;;;;10.85;77.55;101857.81;5012912;28;11478;-72
2021/12/11 11:35:45;;;;;;;;;49.00;41.00;;;;;10.42;71.95;101872.94;5013397;28;11504;-73
2021/12/11 11:38:22;;;;;;;;;30.00;27.50;;;;;10.76;73.79;101862.41;4995947;28;11481;-73
2021/12/11 11:40:54;;;;;;;;;18.25;18.25;;;;;10.61;71.13;101859.09;4996576;28;11032;-74
2021/12/11 11:43:23;;;;;;;;;32.75;31.00;;;;;10.76;74.63;101867.13;5013015;28;10970;-74
2021/12/11 11:45:54;;;;;;;;;53.75;44.00;;;;;10.22;74.63;101866.63;5012885;28;11282;-73
2021/12/11 11:48:24;;;;;;;;;35.00;34.50;;;;;10.07;72.84;101875.09;5011791;28;11451;-75
2021/12/11 11:51:13;;;;;;;;;24.75;23.25;;;;;10.02;75.77;101877.94;4998366;28;11481;-74
2021/12/11 11:53:41;;;;;;;;;25.00;25.00;;;;;10.17;74.93;101866.66;5013151;28;11246;-74
2021/12/11 11:56:18;;;;;;;;;53.75;45.50;;;;;10.16;72.81;101870.53;5012583;28;11215;-74
2021/12/11 11:58:46;;;;;;;;;24.50;22.75;;;;;10.26;73.45;101864.88;5012573;28;11461;-76
2021/12/11 12:01:31;;;;;;;;;30.50;30.50;;;;;10.02;74.96;101867.69;5011729;28;11001;-74
2021/12/11 12:04:01;;;;;;;;;31.25;29.25;;;;;10.14;75.46;101874.75;5013060;28;11455;-74
2021/12/11 12:06:33;;;;;;;;;23.25;23.25;;;;;9.89;74.55;101898.00;5011887;28;11457;-74
2021/12/11 12:09:06;;;;;;;;;24.75;23.50;;;;;9.95;74.72;101886.59;4995235;28;11243;-74
2021/12/11 12:11:58;;;;;;;;;21.75;21.75;;;;;10.18;75.25;101892.34;5012613;28;11893;-74
2021/12/11 12:14:30;;;;;;;;;19.50;18.75;;;;;10.15;74.79;101893.78;4995487;28;11046;-74
2021/12/11 12:16:58;;;;;;;;;26.25;25.50;;;;;9.90;77.62;101883.91;4996238;28;11167;-74
2021/12/11 12:19:27;;;;;;;;;24.00;23.00;;;;;10.17;76.39;101894.31;5016518;28;11477;-74
2021/12/11 12:21:58;;;;;;;;;25.00;25.00;;;;;10.38;76.78;101899.56;5016566;28;11328;-74
2021/12/11 12:24:31;;;;;;;;;19.25;19.25;;;;;10.22;74.59;101910.00;5016469;28;11260;-75
2021/12/11 12:27:01;;;;;;;;;18.00;16.50;;;;;9.92;74.67;101905.72;4998614;28;11095;-74
2021/12/11 12:29:29;;;;;;;;;21.25;20.75;;;;;9.70;75.62;101909.03;4998990;28;11102;-75
2021/12/11 12:32:06;;;;;;;;;13.75;13.75;;;;;9.68;76.78;101900.22;4999160;28;11895;-74
2021/12/11 12:34:35;;;;;;;;;18.75;18.50;;;;;10.57;79.96;101914.19;5016210;28;11097;-74
2021/12/11 12:37:06;;;;;;;;;22.00;21.75;;;;;10.08;76.13;101909.09;5015933;28;11298;-75
2021/12/11 12:39:40;;;;;;;;;24.00;22.75;;;;;10.34;76.56;101928.94;5015666;28;11166;-75
2021/12/11 12:42:20;;;;;;;;;20.25;20.25;;;;;10.15;76.20;101938.00;5015629;28;12041;-75
2021/12/11 12:44:53;;;;;;;;;24.75;23.75;;;;;10.22;75.25;101948.72;5015938;28;11369;-75
2021/12/11 12:47:29;;;;;;;;;19.00;19.00;;;;;10.13;77.52;101947.75;4998244;28;11443;-75
2021/12/11 12:50:01;;;;;;;;;19.00;19.00;;;;;9.91;74.30;101948.31;5015772;28;11105;-74